Time;durP1;ratioP1;P1;durP2;ratioP2;P2;SDS_P1;SDS_P2;PMS_P1;PMS_P2;Temp;Humidity;BMP_temperature;BMP_pressure;BME280_temperature;BME280_humidity;BME280_pressure;Samples;Min_cycle;Max_cycle;Signal;HPM_P1;HPM_P2
2021/03/24 00:00:17;;;;;;;31.20;16.67;;;0.80;40.40;;;;;;5030289;28;20288;-72
2021/03/24 00:02:42;;;;;;;16.52;14.85;;;0.80;40.60;;;;;;5031106;28;20919;-72
2021/03/24 00:05:17;;;;;;;19.30;15.47;;;0.80;40.80;;;;;;5014681;28;20214;-72
2021/03/24 00:07:43;;;;;;;24.85;16.10;;;0.80;40.60;;;;;;5011050;28;20610;-72
2021/03/24 00:10:10;;;;;;;21.08;16.23;;;0.80;40.70;;;;;;5011771;28;20238;-72
2021/03/24 00:12:37;;;;;;;22.75;16.27;;;0.70;41.00;;;;;;5012397;28;20166;-72
2021/03/24 00:15:04;;;;;;;25.08;16.58;;;0.70;41.40;;;;;;5013436;28;20180;-72
2021/03/24 00:17:30;;;;;;;22.75;16.98;;;0.70;41.10;;;;;;5031914;28;20243;-72
2021/03/24 00:19:56;;;;;;;32.37;19.70;;;0.70;41.20;;;;;;5031456;28;20205;-72
2021/03/24 00:22:21;;;;;;;18.27;16.37;;;;;;;;;;5031924;28;20212;-72
2021/03/24 00:24:47;;;;;;;25.60;17.20;;;0.70;40.50;;;;;;5031860;28;20184;-72
2021/03/24 00:27:13;;;;;;;19.50;15.53;;;0.70;41.00;;;;;;5028640;28;20483;-72
2021/03/24 00:29:38;;;;;;;17.50;15.73;;;0.70;41.00;;;;;;5011262;28;20174;-72
2021/03/24 00:32:04;;;;;;;18.23;15.20;;;0.70;40.70;;;;;;5012246;28;20178;-72
2021/03/24 00:34:30;;;;;;;19.48;16.80;;;0.70;41.10;;;;;;5010801;28;20187;-72
2021/03/24 00:36:58;;;;;;;19.53;14.90;;;0.70;41.20;;;;;;5023975;28;20210;-72
2021/03/24 00:39:24;;;;;;;18.27;15.65;;;0.70;41.10;;;;;;5029712;28;20176;-71
2021/03/24 00:41:49;;;;;;;26.43;17.03;;;0.70;41.00;;;;;;5030297;28;20657;-71
2021/03/24 00:44:15;;;;;;;17.10;15.00;;;0.60;41.30;;;;;;5030176;28;20544;-72
2021/03/24 00:46:40;;;;;;;15.70;14.17;;;0.70;41.30;;;;;;5019905;28;20695;-71
2021/03/24 00:49:06;;;;;;;17.40;14.80;;;0.70;41.30;;;;;;5011205;28;20266;-71
2021/03/24 00:51:32;;;;;;;19.00;14.20;;;0.60;41.30;;;;;;5011540;28;20239;-71
2021/03/24 00:53:57;;;;;;;15.07;13.63;;;0.50;41.60;;;;;;5011634;28;20182;-72
2021/03/24 00:56:23;;;;;;;18.07;14.93;;;0.60;41.60;;;;;;5010100;28;20201;-71
2021/03/24 00:58:48;;;;;;;19.53;13.97;;;0.50;41.30;;;;;;5020874;28;20196;-71
2021/03/24 01:01:14;;;;;;;24.13;16.80;;;0.50;41.70;;;;;;5030018;28;20184;-71
2021/03/24 01:03:40;;;;;;;19.23;13.97;;;0.50;41.90;;;;;;5030009;28;20683;-71
2021/03/24 01:06:05;;;;;;;15.73;14.27;;;0.50;42.10;;;;;;5029019;28;20187;-71
2021/03/24 01:08:32;;;;;;;17.40;15.60;;;0.50;42.40;;;;;;5031005;28;20573;-72
2021/03/24 01:11:00;;;;;;;18.15;16.00;;;0.40;42.20;;;;;;5021306;28;20574;-72
2021/03/24 01:13:26;;;;;;;21.75;16.60;;;0.30;42.60;;;;;;5011254;28;20187;-72
2021/03/24 01:15:52;;;;;;;20.15;17.13;;;0.30;43.80;;;;;;5009952;28;20230;-72
2021/03/24 01:18:20;;;;;;;22.13;16.63;;;0.30;43.20;;;;;;5011302;28;20181;-72
2021/03/24 01:20:46;;;;;;;20.05;16.33;;;0.20;43.80;;;;;;5010700;28;20178;-74
2021/03/24 01:23:12;;;;;;;19.30;14.77;;;0.20;44.20;;;;;;5021509;28;20190;-73
2021/03/24 01:25:38;;;;;;;17.58;15.98;;;0.20;44.20;;;;;;5030107;28;20433;-71
2021/03/24 01:28:07;;;;;;;17.95;16.08;;;0.10;43.50;;;;;;5029764;28;20203;-72
2021/03/24 01:30:34;;;;;;;22.20;16.42;;;0.20;44.20;;;;;;5030238;28;20561;-72
2021/03/24 01:33:00;;;;;;;20.58;15.77;;;0.20;44.20;;;;;;5029566;28;20325;-72
2021/03/24 01:35:26;;;;;;;17.40;15.53;;;0.20;44.20;;;;;;5018983;28;20657;-72
2021/03/24 01:37:51;;;;;;;25.63;14.60;;;0.30;48.60;;;;;;5011028;28;20244;-72
2021/03/24 01:40:26;;;;;;;17.97;15.43;;;0.30;47.80;;;;;;5009299;28;20189;-72
2021/03/24 01:42:53;;;;;;;17.80;16.00;;;;;;;;;;5009787;28;20486;-72
2021/03/24 01:45:19;;;;;;;17.40;15.43;;;;;;;;;;5011031;28;20184;-71
2021/03/24 01:47:46;;;;;;;27.73;16.20;;;;;;;;;;5023035;28;20274;-72
2021/03/24 01:50:23;;;;;;;20.27;15.27;;;;;;;;;;5028543;28;20856;-72
2021/03/24 01:52:49;;;;;;;19.75;15.75;;;;;;;;;;5030556;28;20201;-72
2021/03/24 01:55:15;;;;;;;16.55;14.13;;;;;;;;;;5029277;28;20220;-72
2021/03/24 01:57:45;;;;;;;20.67;15.57;;;;;;;;;;5019350;28;20213;-72
2021/03/24 02:00:34;;;;;;;19.02;16.33;;;;;;;;;;5009122;28;20177;-72
2021/03/24 02:03:01;;;;;;;19.60;16.08;;;;;;;;;;4998440;28;20690;-73
2021/03/24 02:05:27;;;;;;;23.55;16.52;;;0.10;43.50;;;;;;5011066;28;20193;-72
2021/03/24 02:07:57;;;;;;;18.00;16.13;;;0.10;44.10;;;;;;5010698;28;20223;-72
2021/03/24 02:10:31;;;;;;;18.27;14.30;;;0.10;44.10;;;;;;5025205;28;20207;-72
2021/03/24 02:13:03;;;;;;;20.60;15.90;;;0.10;44.10;;;;;;5030473;28;20223;-72
2021/03/24 02:15:37;;;;;;;28.10;16.20;;;0.00;44.00;;;;;;5029221;28;20179;-72
2021/03/24 02:18:05;;;;;;;18.38;16.20;;;0.00;44.00;;;;;;5022112;28;20212;-72
2021/03/24 02:20:39;;;;;;;19.67;14.35;;;0.00;44.00;;;;;;5035073;28;20591;-72
2021/03/24 02:23:07;;;;;;;17.73;15.82;;;0.00;44.10;;;;;;5032882;28;20192;-72
2021/03/24 02:25:41;;;;;;;25.15;17.02;;;0.00;44.70;;;;;;5034160;28;20201;-72
2021/03/24 02:28:10;;;;;;;16.60;14.05;;;0.00;44.00;;;;;;5032568;28;20299;-73
2021/03/24 02:30:39;;;;;;;16.90;15.13;;;0.00;44.00;;;;;;5033703;28;20208;-72
2021/03/24 02:33:21;;;;;;;20.10;16.35;;;-0.10;43.90;;;;;;5034610;28;20538;-72
2021/03/24 02:35:49;;;;;;;19.38;14.73;;;-0.10;43.90;;;;;;5032844;28;20194;-73
2021/03/24 02:38:18;;;;;;;24.08;16.63;;;-0.10;43.90;;;;;;5034096;28;20442;-72
2021/03/24 02:40:46;;;;;;;17.70;15.65;;;-0.10;44.00;;;;;;5013891;28;20183;-72
2021/03/24 02:43:13;;;;;;;23.40;15.65;;;-0.10;43.90;;;;;;5014045;28;20547;-72
2021/03/24 02:45:42;;;;;;;15.40;13.85;;;-0.10;44.00;;;;;;5014369;28;20594;-72
2021/03/24 02:48:12;;;;;;;17.05;15.35;;;-0.10;43.90;;;;;;5013951;28;20197;-72
2021/03/24 02:50:41;;;;;;;17.55;15.63;;;-0.10;43.90;;;;;;5013351;28;20680;-72
2021/03/24 02:53:08;;;;;;;17.55;15.75;;;-0.10;43.30;;;;;;5031986;28;20188;-72
2021/03/24 02:55:36;;;;;;;18.70;16.02;;;-0.10;43.90;;;;;;5032327;28;20180;-72
2021/03/24 02:58:02;;;;;;;21.27;16.33;;;-0.10;43.90;;;;;;5033653;28;20301;-72
2021/03/24 03:00:28;;;;;;;15.67;14.00;;;-0.10;43.90;;;;;;5023495;28;20327;-72
2021/03/24 03:02:59;;;;;;;25.33;16.80;;;-0.20;43.90;;;;;;5013761;28;20175;-72
2021/03/24 03:05:32;;;;;;;24.42;17.50;;;-0.20;43.80;;;;;;5013733;28;20800;-72
2021/03/24 03:08:06;;;;;;;22.52;15.27;;;-0.20;43.90;;;;;;5012307;28;20369;-72
2021/03/24 03:10:49;;;;;;;22.40;17.13;;;-0.30;43.90;;;;;;5022757;28;20211;-72
2021/03/24 03:13:28;;;;;;;18.00;15.50;;;-0.30;44.50;;;;;;5033297;28;20177;-72
2021/03/24 03:16:23;;;;;;;19.45;16.17;;;-0.30;44.60;;;;;;5033338;28;20163;-72
2021/03/24 03:19:12;;;;;;;18.60;16.27;;;-0.40;44.40;;;;;;5032791;28;20178;-72
2021/03/24 03:21:42;;;;;;;25.90;16.67;;;-0.40;45.00;;;;;;5031296;28;20550;-73
2021/03/24 03:24:10;;;;;;;19.65;16.77;;;-0.40;43.70;;;;;;5012978;28;20195;-73
2021/03/24 03:26:39;;;;;;;19.88;15.30;;;-0.40;44.40;;;;;;5013416;28;20671;-73
2021/03/24 03:29:16;;;;;;;19.65;17.52;;;-0.50;44.60;;;;;;5010917;28;20527;-73
2021/03/24 03:31:46;;;;;;;25.50;15.57;;;-0.50;43.60;;;;;;5013309;28;20612;-73
2021/03/24 03:34:14;;;;;;;18.52;16.40;;;-0.50;44.10;;;;;;5022263;28;20242;-72
2021/03/24 03:36:43;;;;;;;17.45;15.35;;;-0.50;44.70;;;;;;5032457;28;20330;-73
2021/03/24 03:39:18;;;;;;;28.85;16.70;;;-0.50;44.30;;;;;;5032290;28;20206;-73
2021/03/24 03:41:46;;;;;;;23.55;17.58;;;-0.50;44.10;;;;;;5032968;28;20175;-72
2021/03/24 03:44:15;;;;;;;18.08;15.55;;;-0.50;43.90;;;;;;5032864;28;20183;-72
2021/03/24 03:46:50;;;;;;;18.88;16.60;;;-0.50;44.10;;;;;;5032108;28;20218;-72
2021/03/24 03:49:17;;;;;;;22.65;17.90;;;-0.50;44.00;;;;;;5031824;28;20187;-72
2021/03/24 03:52:21;;;;;;;21.10;16.13;;;-0.60;43.60;;;;;;5030692;28;20257;-72
2021/03/24 03:54:57;;;;;;;20.17;17.17;;;-0.60;44.30;;;;;;5031397;28;20185;-72
2021/03/24 03:57:53;;;;;;;20.20;15.05;;;-0.60;44.20;;;;;;5029683;28;20191;-72
2021/03/24 04:00:24;;;;;;;17.98;14.93;;;-0.60;44.40;;;;;;5012814;28;20215;-72
2021/03/24 04:03:01;;;;;;;23.33;18.20;;;-0.60;44.50;;;;;;5012684;28;20184;-72
2021/03/24 04:05:47;;;;;;;22.38;17.15;;;-0.60;44.40;;;;;;5012809;28;20184;-72
2021/03/24 04:08:32;;;;;;;22.48;16.42;;;-0.60;45.10;;;;;;5011095;28;20196;-72
2021/03/24 04:11:01;;;;;;;19.33;17.08;;;-0.60;45.00;;;;;;5010902;28;20234;-72
2021/03/24 04:13:29;;;;;;;17.60;15.75;;;-0.70;44.70;;;;;;5012250;28;20179;-72
2021/03/24 04:16:00;;;;;;;24.85;15.45;;;-0.70;45.10;;;;;;5012455;28;20642;-73
2021/03/24 04:18:32;;;;;;;22.25;17.90;;;-0.70;45.10;;;;;;5010892;28;20231;-72
2021/03/24 04:20:59;;;;;;;25.27;17.33;;;-0.80;44.80;;;;;;5010718;28;20668;-72
2021/03/24 04:23:28;;;;;;;20.85;16.27;;;-0.80;44.70;;;;;;5030210;28;20190;-72
2021/03/24 04:26:00;;;;;;;23.20;18.20;;;-0.80;44.60;;;;;;5031861;28;20206;-72
2021/03/24 04:28:31;;;;;;;22.80;18.45;;;-0.80;44.30;;;;;;5031949;28;20550;-72
2021/03/24 04:31:03;;;;;;;25.13;17.13;;;-0.80;44.10;;;;;;5031186;28;20676;-72
2021/03/24 04:33:29;;;;;;;26.58;15.45;;;-0.80;44.40;;;;;;5029261;28;20520;-72
2021/03/24 04:35:57;;;;;;;27.87;16.67;;;-0.80;44.60;;;;;;5011893;28;20215;-72
2021/03/24 04:38:34;;;;;;;21.42;16.20;;;-0.80;44.50;;;;;;5012040;28;20251;-72
2021/03/24 04:41:06;;;;;;;23.73;17.98;;;-0.80;44.40;;;;;;5010851;28;20233;-72
2021/03/24 04:43:38;;;;;;;21.65;18.25;;;-0.80;44.10;;;;;;5012125;28;20172;-72
2021/03/24 04:46:10;;;;;;;20.88;16.55;;;-0.90;44.20;;;;;;5016911;28;20219;-73
2021/03/24 04:48:44;;;;;;;23.52;15.73;;;-1.00;44.70;;;;;;5031125;28;20598;-72
2021/03/24 04:51:22;;;;;;;15.02;13.48;;;-1.00;44.90;;;;;;5031252;28;20314;-73
2021/03/24 04:53:55;;;;;;;19.58;15.57;;;-1.10;44.70;;;;;;5031320;28;20545;-73
2021/03/24 04:56:21;;;;;;;21.75;16.08;;;-1.10;44.30;;;;;;5031844;28;20195;-72
2021/03/24 04:58:53;;;;;;;19.33;17.23;;;-1.10;44.70;;;;;;5017014;28;20216;-72
2021/03/24 05:01:22;;;;;;;21.20;16.75;;;-1.10;44.70;;;;;;5011779;28;20176;-72
2021/03/24 05:03:53;;;;;;;23.83;17.23;;;-1.10;44.70;;;;;;5010186;28;20184;-72
2021/03/24 05:06:42;;;;;;;20.75;16.80;;;-1.00;44.50;;;;;;5034127;22;20215;-70
2021/03/24 05:09:09;;;;;;;21.48;16.65;;;-1.10;44.90;;;;;;4990834;28;20713;-71
2021/03/24 05:12:07;;;;;;;28.05;19.35;;;-1.10;44.80;;;;;;4991421;28;20208;-71
2021/03/24 05:14:40;;;;;;;27.30;19.15;;;-1.20;44.70;;;;;;4991678;28;20176;-72
2021/03/24 05:17:05;;;;;;;22.98;20.05;;;-1.30;45.30;;;;;;4991653;28;20196;-71
2021/03/24 05:19:31;;;;;;;26.13;20.60;;;-1.30;45.50;;;;;;4991125;28;20175;-71
2021/03/24 05:22:18;;;;;;;22.50;19.03;;;-1.20;45.90;;;;;;4991067;28;20704;-71
2021/03/24 05:24:46;;;;;;;20.65;18.42;;;-1.20;45.90;;;;;;4991531;28;20438;-70
2021/03/24 05:27:33;;;;;;;23.02;17.45;;;-1.20;46.00;;;;;;4991522;28;20215;-71
2021/03/24 05:30:10;;;;;;;21.38;17.80;;;-1.10;46.10;;;;;;4991197;28;20243;-71
2021/03/24 05:32:40;;;;;;;25.33;21.08;;;-1.10;46.10;;;;;;4991662;28;20179;-71
2021/03/24 05:35:26;;;;;;;24.92;19.02;;;-1.00;46.30;;;;;;4982000;28;20173;-71
2021/03/24 05:37:52;;;;;;;23.90;18.58;;;-1.00;46.80;;;;;;4972113;28;20999;-71
2021/03/24 05:40:56;;;;;;;26.27;19.03;;;-0.90;46.90;;;;;;4971513;28;20213;-71
2021/03/24 05:43:48;;;;;;;21.60;19.40;;;-0.80;47.10;;;;;;4941725;28;20458;-71
2021/03/24 05:47:04;;;;;;;24.75;20.88;;;-0.70;46.70;;;;;;4954657;28;20598;-72
2021/03/24 05:49:37;;;;;;;27.30;19.92;;;-0.70;47.40;;;;;;4956752;28;20647;-71
2021/03/24 05:52:13;;;;;;;21.70;18.85;;;-0.50;47.90;;;;;;4991732;28;20188;-72
2021/03/24 05:54:51;;;;;;;22.92;18.60;;;-0.40;47.60;;;;;;4995194;28;20208;-70
2021/03/24 05:57:25;;;;;;;20.80;18.10;;;-0.30;46.50;;;;;;4995038;28;20279;-70
2021/03/24 06:00:10;;;;;;;34.20;20.42;;;-0.20;44.90;;;;;;4980709;28;20178;-69
2021/03/24 06:02:46;;;;;;;21.92;17.90;;;-0.10;43.90;;;;;;4974309;28;20192;-72
2021/03/24 06:05:18;;;;;;;22.45;17.52;;;;;;;;;;4975655;28;20604;-69
2021/03/24 06:07:50;;;;;;;20.70;17.30;;;;;;;;;;4975449;28;20275;-71
2021/03/24 06:10:22;;;;;;;18.48;15.52;;;;;;;;;;4986024;28;20269;-68
2021/03/24 06:12:56;;;;;;;19.88;16.50;;;;;;;;;;4994842;28;20601;-70
2021/03/24 06:15:30;;;;;;;16.98;14.82;;;;;;;;;;4994492;28;20609;-71
2021/03/24 06:18:35;;;;;;;22.92;15.55;;;2.00;33.90;;;;;;4994318;28;20482;-70
2021/03/24 06:21:21;;;;;;;22.67;17.08;;;4.00;27.50;;;;;;4975030;28;20205;-70
2021/03/24 06:24:27;;;;;;;19.25;14.98;;;5.10;25.60;;;;;;4944543;28;20189;-70
2021/03/24 06:27:11;;;;;;;16.67;14.52;;;6.10;23.30;;;;;;4974728;28;20257;-71
2021/03/24 06:29:56;;;;;;;16.75;14.90;;;6.80;21.30;;;;;;4981022;28;20190;-71
2021/03/24 06:32:33;;;;;;;18.37;15.60;;;7.60;20.60;;;;;;4994384;28;20324;-71
2021/03/24 06:35:11;;;;;;;15.47;13.97;;;8.30;19.30;;;;;;4994347;28;20399;-70
2021/03/24 06:37:59;;;;;;;16.17;14.80;;;9.10;17.20;;;;;;4994438;28;20450;-69
2021/03/24 06:40:28;;;;;;;15.40;14.00;;;9.40;16.60;;;;;;4993595;28;20482;-69
2021/03/24 06:43:20;;;;;;;18.47;16.57;;;9.90;15.60;;;;;;4977526;28;20430;-70
2021/03/24 06:45:58;;;;;;;16.20;14.80;;;10.60;14.40;;;;;;4977847;28;20471;-71
2021/03/24 06:48:50;;;;;;;24.90;15.50;;;11.00;12.70;;;;;;4993719;28;20444;-70
2021/03/24 06:51:34;;;;;;;15.70;14.30;;;11.00;12.40;;;;;;4994003;28;20475;-70
2021/03/24 06:54:08;;;;;;;17.37;15.80;;;11.30;11.90;;;;;;4992930;28;20428;-70
2021/03/24 06:56:37;;;;;;;17.60;16.07;;;11.70;10.90;;;;;;4993361;28;20460;-70
2021/03/24 06:59:33;;;;;;;16.90;15.40;;;11.90;11.00;;;;;;4993059;28;20466;-69
2021/03/24 07:02:29;;;;;;;18.90;17.10;;;12.10;11.10;;;;;;4993704;28;20719;-71
2021/03/24 07:05:27;;;;;;;17.73;16.13;;;11.70;10.80;;;;;;4989403;28;20434;-69
2021/03/24 07:08:30;;;;;;;17.00;14.63;;;10.40;13.00;;;;;;4948943;28;20555;-69
2021/03/24 07:11:25;;;;;;;17.97;16.20;;;9.40;15.20;;;;;;4993081;28;20451;-70
2021/03/24 07:14:28;;;;;;;17.27;15.57;;;8.40;17.20;;;;;;4977805;28;20431;-70
2021/03/24 07:17:15;;;;;;;18.90;17.10;;;7.60;18.50;;;;;;4987128;28;20538;-70
2021/03/24 07:20:07;;;;;;;19.63;14.40;;;6.70;20.70;;;;;;4992932;28;20181;-71
2021/03/24 07:22:58;;;;;;;18.83;17.02;;;6.00;22.60;;;;;;4993303;28;20187;-73
2021/03/24 07:25:27;;;;;;;24.15;19.00;;;5.50;24.60;;;;;;4993356;28;20613;-72
2021/03/24 07:28:26;;;;;;;18.95;14.15;;;5.20;24.60;;;;;;4993026;28;20231;-72
2021/03/24 07:31:01;;;;;;;16.33;14.50;;;5.00;25.70;;;;;;4992661;28;20592;-72
2021/03/24 07:33:34;;;;;;;25.38;17.55;;;4.90;26.10;;;;;;4986506;28;20730;-71
2021/03/24 07:36:26;;;;;;;19.42;17.42;;;4.90;26.30;;;;;;4984822;28;20631;-72
2021/03/24 07:39:03;;;;;;;25.70;19.15;;;4.90;26.20;;;;;;4969381;28;20197;-71
2021/03/24 07:41:35;;;;;;;19.75;17.70;;;5.00;26.30;;;;;;4983169;28;20214;-72
2021/03/24 07:44:38;;;;;;;20.65;17.75;;;5.20;27.20;;;;;;4991862;28;20177;-72
2021/03/24 07:47:12;;;;;;;23.98;16.95;;;5.40;26.40;;;;;;4977724;28;20815;-72
2021/03/24 07:49:48;;;;;;;26.65;18.73;;;5.50;24.90;;;;;;4974043;28;20640;-72
2021/03/24 07:52:32;;;;;;;24.58;18.33;;;5.60;24.70;;;;;;4990479;28;20275;-72
2021/03/24 07:55:22;;;;;;;18.77;16.77;;;5.50;25.10;;;;;;4989897;28;20178;-72
2021/03/24 07:57:51;;;;;;;22.77;17.20;;;5.70;25.90;;;;;;4981921;28;20264;-72
2021/03/24 08:00:22;;;;;;;18.73;16.88;;;5.80;25.20;;;;;;4969879;28;20206;-72
2021/03/24 08:03:00;;;;;;;28.33;18.60;;;5.90;25.50;;;;;;4981519;28;20265;-72
2021/03/24 08:06:03;;;;;;;26.05;16.52;;;6.00;25.00;;;;;;4990410;28;20180;-72
2021/03/24 08:08:50;;;;;;;18.98;17.05;;;6.20;25.10;;;;;;4982241;28;20242;-72
2021/03/24 08:11:38;;;;;;;27.38;16.70;;;6.20;24.30;;;;;;4969991;28;20188;-72
2021/03/24 08:14:15;;;;;;;18.48;14.73;;;6.40;25.00;;;;;;4972805;28;20714;-72
2021/03/24 08:17:01;;;;;;;20.88;18.55;;;6.40;23.60;;;;;;4988056;28;20275;-72
2021/03/24 08:20:08;;;;;;;19.98;15.52;;;6.50;25.30;;;;;;4988762;28;20319;-71
2021/03/24 08:22:52;;;;;;;21.20;19.10;;;6.70;25.00;;;;;;4967136;28;20513;-71
2021/03/24 08:25:29;;;;;;;21.93;14.67;;;6.90;24.10;;;;;;4972643;28;20510;-73
2021/03/24 08:28:18;;;;;;;22.67;16.73;;;7.10;23.30;;;;;;4989631;28;20453;-72
2021/03/24 08:31:26;;;;;;;17.20;15.50;;;7.10;24.20;;;;;;4989557;28;20184;-72
2021/03/24 08:34:26;;;;;;;19.00;17.03;;;7.30;23.70;;;;;;4991290;28;20886;-74
2021/03/24 08:36:57;;;;;;;18.17;16.43;;;7.40;23.50;;;;;;4970024;28;20451;-70
2021/03/24 08:39:46;;;;;;;20.00;17.67;;;7.40;23.50;;;;;;4986141;28;20740;-71
2021/03/24 08:42:33;;;;;;;20.23;17.80;;;7.40;23.60;;;;;;4949392;28;21051;-71
2021/03/24 08:45:24;;;;;;;19.73;16.83;;;7.50;22.80;;;;;;4988704;28;20845;-71
2021/03/24 08:47:55;;;;;;;20.30;18.40;;;7.50;22.80;;;;;;4979694;28;20458;-71
2021/03/24 08:50:27;;;;;;;19.00;17.07;;;7.40;23.80;;;;;;4989150;28;20451;-71
2021/03/24 08:53:21;;;;;;;19.20;17.50;;;7.60;23.30;;;;;;4988088;28;20449;-72
2021/03/24 08:56:05;;;;;;;18.33;16.43;;;7.80;23.30;;;;;;4987702;28;20418;-71
2021/03/24 08:58:32;;;;;;;24.47;20.07;;;7.90;22.70;;;;;;4989318;28;20529;-71
2021/03/24 09:01:09;;;;;;;17.77;15.90;;;8.00;22.20;;;;;;4987047;28;20466;-71
2021/03/24 09:03:53;;;;;;;18.83;16.97;;;8.10;22.70;;;;;;4987044;28;20435;-72
2021/03/24 09:06:37;;;;;;;19.33;17.47;;;8.10;21.90;;;;;;4970893;28;20443;-71
2021/03/24 09:09:28;;;;;;;20.57;16.40;;;8.20;22.20;;;;;;4978278;28;20431;-71
2021/03/24 09:11:53;;;;;;;20.27;18.23;;;8.20;22.00;;;;;;4987284;28;20431;-71
2021/03/24 09:14:24;;;;;;;19.43;17.47;;;8.30;22.20;;;;;;4990955;28;20473;-71
2021/03/24 09:17:05;;;;;;;27.47;19.70;;;8.40;22.30;;;;;;4981107;28;20208;-71
2021/03/24 09:19:45;;;;;;;19.63;17.73;;;8.70;21.70;;;;;;4971103;28;20976;-71
2021/03/24 09:22:41;;;;;;;18.77;16.87;;;8.90;21.90;;;;;;4971197;28;20460;-72
2021/03/24 09:25:46;;;;;;;22.30;19.37;;;9.00;20.60;;;;;;4972093;28;20454;-72
2021/03/24 09:28:46;;;;;;;19.30;17.27;;;9.20;20.50;;;;;;4986019;28;20456;-71
2021/03/24 09:31:35;;;;;;;17.87;16.37;;;9.30;19.90;;;;;;4963208;28;20950;-72
2021/03/24 09:34:39;;;;;;;20.97;18.40;;;9.50;19.90;;;;;;4987485;28;20832;-71
2021/03/24 09:37:09;;;;;;;17.77;15.97;;;9.60;19.50;;;;;;4987158;28;20453;-71
2021/03/24 09:39:57;;;;;;;16.27;13.27;;;9.50;18.80;;;;;;4982154;28;20525;-71
2021/03/24 09:42:41;;;;;;;17.30;15.67;;;9.50;18.80;;;;;;4973457;28;20486;-72
2021/03/24 09:45:19;;;;;;;16.10;14.67;;;9.50;18.80;;;;;;4981609;28;20845;-72
2021/03/24 09:48:05;;;;;;;17.17;15.37;;;9.70;19.00;;;;;;4986470;28;20468;-72
2021/03/24 09:50:43;;;;;;;17.30;15.37;;;9.80;18.90;;;;;;4968451;28;20490;-72
2021/03/24 09:53:22;;;;;;;17.83;15.63;;;9.80;18.40;;;;;;4986155;28;20918;-71
2021/03/24 09:56:12;;;;;;;17.97;16.17;;;9.80;18.10;;;;;;4986456;28;20451;-70
2021/03/24 09:59:00;;;;;;;22.03;15.33;;;9.90;19.00;;;;;;4989940;28;20783;-71
2021/03/24 10:01:40;;;;;;;20.30;15.07;;;10.00;18.00;;;;;;4990500;28;20464;-71
2021/03/24 10:04:46;;;;;;;19.77;17.73;;;10.20;17.50;;;;;;4973283;28;20947;-69
2021/03/24 10:07:20;;;;;;;14.73;13.43;;;10.30;17.60;;;;;;4979335;28;20477;-70
2021/03/24 10:10:13;;;;;;;17.60;16.10;;;10.50;17.70;;;;;;4989955;28;20407;-70
2021/03/24 10:12:53;;;;;;;86.47;78.10;;;10.80;17.40;;;;;;4973147;28;20488;-70
2021/03/24 10:15:54;;;;;;;26.20;24.03;;;10.90;17.20;;;;;;4990889;28;20428;-71
2021/03/24 10:18:39;;;;;;;23.93;21.53;;;11.60;16.20;;;;;;4948217;28;20825;-70
2021/03/24 10:21:09;;;;;;;20.97;19.37;;;11.80;16.20;;;;;;4991409;28;20518;-71
2021/03/24 10:23:38;;;;;;;14.83;13.43;;;12.10;15.50;;;;;;4991095;28;20425;-70
2021/03/24 10:26:30;;;;;;;22.50;15.40;;;12.10;14.50;;;;;;4991253;28;20485;-70
2021/03/24 10:29:06;;;;;;;56.23;43.77;;;12.00;15.40;;;;;;4987677;28;20446;-70
2021/03/24 10:31:39;;;;;;;17.80;16.03;;;11.90;15.40;;;;;;4990919;28;20907;-71
2021/03/24 10:34:22;;;;;;;16.00;14.37;;;11.80;15.30;;;;;;4989231;28;20512;-73
2021/03/24 10:36:56;;;;;;;17.10;15.50;;;11.80;15.30;;;;;;4990889;28;20985;-72
2021/03/24 10:39:45;;;;;;;16.73;15.07;;;11.70;15.20;;;;;;4992772;28;20438;-72
2021/03/24 10:42:28;;;;;;;17.33;15.80;;;11.60;15.60;;;;;;4993749;28;21030;-73
2021/03/24 10:45:18;;;;;;;19.50;15.30;;;11.60;15.30;;;;;;4994014;28;20785;-72
2021/03/24 10:47:48;;;;;;;15.97;14.37;;;11.60;15.30;;;;;;4994569;28;20614;-72
2021/03/24 10:50:22;;;;;;;20.57;14.37;;;11.70;15.20;;;;;;4971483;28;20883;-72
2021/03/24 10:53:28;;;;;;;19.17;16.33;;;11.50;15.10;;;;;;4993210;28;20427;-72
2021/03/24 10:56:16;;;;;;;17.63;16.00;;;11.40;15.60;;;;;;4989963;28;20431;-72
2021/03/24 10:59:03;;;;;;;19.20;14.83;;;11.60;15.90;;;;;;4973402;28;20820;-72
2021/03/24 11:01:47;;;;;;;20.07;16.13;;;11.70;15.60;;;;;;4975007;28;20464;-73
2021/03/24 11:04:46;;;;;;;18.20;15.20;;;11.60;15.90;;;;;;4988490;28;20422;-72
2021/03/24 11:07:19;;;;;;;17.40;15.73;;;11.70;16.30;;;;;;5022920;23;20514;-72
2021/03/24 11:09:56;;;;;;;18.47;16.77;;;12.00;16.30;;;;;;5053460;28;20411;-71
2021/03/24 11:12:36;;;;;;;15.90;14.60;;;12.00;15.40;;;;;;5048836;28;20704;-71
2021/03/24 11:15:25;;;;;;;16.10;14.67;;;11.90;15.40;;;;;;5052721;28;20790;-73
2021/03/24 11:18:02;;;;;;;18.07;16.37;;;11.90;15.30;;;;;;5054421;28;20434;-72
2021/03/24 11:20:54;;;;;;;17.87;16.20;;;11.90;15.40;;;;;;5053489;28;20450;-71
2021/03/24 11:23:33;;;;;;;21.97;15.20;;;12.00;15.50;;;;;;5054136;28;20408;-71
2021/03/24 11:26:18;;;;;;;16.57;14.87;;;12.10;15.00;;;;;;5052968;28;20425;-72
2021/03/24 11:28:48;;;;;;;16.37;14.80;;;12.10;15.10;;;;;;5053501;28;20428;-72
2021/03/24 11:31:20;;;;;;;18.57;16.90;;;12.30;14.90;;;;;;5054508;28;20409;-71
2021/03/24 11:33:48;;;;;;;16.57;15.37;;;12.30;15.60;;;;;;5053913;28;20417;-71
2021/03/24 11:36:35;;;;;;;14.83;13.60;;;12.40;15.70;;;;;;5057541;28;20412;-71
2021/03/24 11:39:14;;;;;;;21.90;14.70;;;12.70;15.30;;;;;;5054860;28;20408;-72
2021/03/24 11:41:41;;;;;;;19.67;16.47;;;12.70;14.30;;;;;;5052977;28;20459;-72
2021/03/24 11:44:10;;;;;;;16.83;15.30;;;12.70;14.90;;;;;;5054398;28;20500;-75
2021/03/24 11:46:41;;;;;;;18.27;16.63;;;12.90;14.60;;;;;;5053942;28;20401;-73
2021/03/24 11:49:31;;;;;;;17.73;16.17;;;12.90;14.60;;;;;;5050952;28;20425;-75
2021/03/24 11:52:03;;;;;;;16.10;15.00;;;13.00;14.80;;;;;;5051969;28;20401;-74
2021/03/24 11:54:53;;;;;;;16.30;14.90;;;13.10;14.40;;;;;;5051785;28;20466;-72
2021/03/24 11:57:37;;;;;;;17.07;15.77;;;13.20;13.80;;;;;;5050041;28;20429;-72
2021/03/24 12:00:45;;;;;;;16.93;15.63;;;13.10;14.30;;;;;;5051408;28;20424;-73
2021/03/24 12:03:45;;;;;;;16.97;15.53;;;13.20;14.00;;;;;;5051594;28;20466;-71
2021/03/24 12:06:28;;;;;;;17.60;15.87;;;13.40;14.00;;;;;;5051365;28;20401;-70
2021/03/24 12:09:02;;;;;;;17.30;15.00;;;13.40;13.60;;;;;;5051698;28;20439;-71
2021/03/24 12:11:33;;;;;;;18.20;16.30;;;13.40;13.60;;;;;;5051494;28;20417;-72
2021/03/24 12:14:19;;;;;;;15.80;14.50;;;13.30;13.30;;;;;;5051390;28;20441;-71
2021/03/24 12:16:51;;;;;;;17.20;15.73;;;13.30;13.30;;;;;;5052836;28;20411;-71
2021/03/24 12:19:24;;;;;;;14.40;13.13;;;13.30;13.30;;;;;;5051134;28;20419;-71
2021/03/24 12:21:55;;;;;;;12.20;11.20;;;13.50;13.30;;;;;;5054138;28;20461;-72
2021/03/24 12:24:30;;;;;;;12.93;12.03;;;13.60;13.30;;;;;;5053274;28;20500;-72
2021/03/24 12:27:19;;;;;;;13.53;11.73;;;13.50;12.60;;;;;;5051875;28;20436;-72
2021/03/24 12:29:57;;;;;;;14.47;13.37;;;13.70;12.30;;;;;;5051572;28;20784;-71
2021/03/24 12:32:25;;;;;;;15.83;14.40;;;13.80;12.30;;;;;;5052149;28;20425;-70
2021/03/24 12:34:53;;;;;;;14.83;13.93;;;13.80;12.30;;;;;;5050461;28;20505;-71
2021/03/24 12:37:37;;;;;;;15.27;14.00;;;13.90;12.30;;;;;;5051787;28;20438;-71
2021/03/24 12:40:10;;;;;;;17.07;15.77;;;14.00;12.00;;;;;;5053490;28;20467;-72
2021/03/24 12:42:35;;;;;;;17.70;15.90;;;14.00;11.70;;;;;;5051764;28;20459;-72
2021/03/24 12:45:29;;;;;;;14.60;13.33;;;14.10;12.10;;;;;;5042148;28;20419;-72
2021/03/24 12:48:23;;;;;;;14.40;13.40;;;14.00;11.30;;;;;;5031836;28;20200;-71
2021/03/24 12:51:02;;;;;;;14.77;13.60;;;14.00;11.80;;;;;;5030354;28;20740;-73
2021/03/24 12:53:50;;;;;;;16.33;14.97;;;14.00;11.30;;;;;;5031242;28;20430;-72
2021/03/24 12:56:43;;;;;;;14.63;13.30;;;14.00;11.50;;;;;;5038932;28;20450;-72
2021/03/24 12:59:38;;;;;;;13.67;12.57;;;14.10;12.20;;;;;;5053249;28;20601;-73
2021/03/24 13:02:29;;;;;;;14.20;13.10;;;14.00;10.30;;;;;;5052365;28;20458;-73
2021/03/24 13:05:21;;;;;;;15.87;14.60;;;13.90;10.20;;;;;;5053348;28;20514;-72
2021/03/24 13:08:05;;;;;;;13.40;12.50;;;14.00;11.00;;;;;;5053306;28;20447;-70
2021/03/24 13:10:51;;;;;;;14.03;12.90;;;14.20;11.10;;;;;;5050792;28;20460;-75
2021/03/24 13:13:43;;;;;;;14.60;13.50;;;14.30;11.80;;;;;;5042923;28;20448;-71
2021/03/24 13:16:22;;;;;;;15.70;14.23;;;14.40;10.50;;;;;;5053774;28;20482;-72
2021/03/24 13:19:19;;;;;;;13.33;12.33;;;14.40;10.60;;;;;;5056682;28;20843;-71
2021/03/24 13:21:57;;;;;;;14.70;13.57;;;14.40;11.40;;;;;;5050951;28;20454;-72
2021/03/24 13:24:35;;;;;;;15.20;14.00;;;14.50;10.60;;;;;;5056273;28;20539;-73
2021/03/24 13:27:19;;;;;;;16.00;15.00;;;14.50;11.40;;;;;;5054739;28;20531;-72
2021/03/24 13:29:54;;;;;;;17.03;15.73;;;14.70;10.40;;;;;;5053557;28;20424;-74